createdAt,value
2022-10-18T00:00:50.980Z,7.10
2022-10-18T00:03:18.660Z,9.43
2022-10-18T00:05:46.321Z,7.50
2022-10-18T00:08:13.960Z,8.87
2022-10-18T00:10:43.155Z,8.53
2022-10-18T00:13:10.909Z,6.03
2022-10-18T00:15:38.679Z,6.97
2022-10-18T00:18:06.231Z,8.20
2022-10-18T00:20:33.793Z,5.50
2022-10-18T00:23:01.613Z,5.37
2022-10-18T00:25:29.234Z,7.27
2022-10-18T00:27:58.267Z,9.10
2022-10-18T00:30:26.512Z,8.83
2022-10-18T00:32:54.134Z,9.80
2022-10-18T00:35:21.813Z,8.83
2022-10-18T00:37:49.480Z,9.50
2022-10-18T00:40:17.280Z,8.97
2022-10-18T00:42:44.937Z,8.97
2022-10-18T00:45:24.597Z,9.20
2022-10-18T00:47:57.757Z,8.07
2022-10-18T00:50:27.470Z,10.33
2022-10-18T00:52:59.515Z,9.93
2022-10-18T00:55:27.665Z,9.50
2022-10-18T00:57:56.881Z,10.10
2022-10-18T01:00:25.860Z,9.40
2022-10-18T01:02:53.461Z,10.03
2022-10-18T01:05:21.527Z,10.93
2022-10-18T01:08:32.320Z,10.03
2022-10-18T01:11:14.745Z,10.00
2022-10-18T01:13:54.760Z,8.70
2022-10-18T01:16:30.119Z,8.67
2022-10-18T01:19:02.721Z,8.43
2022-10-18T01:21:44.027Z,7.83
2022-10-18T01:24:48.062Z,9.80
2022-10-18T01:27:36.978Z,9.63
2022-10-18T01:30:27.419Z,9.73
2022-10-18T01:33:00.693Z,11.00
2022-10-18T01:35:32.866Z,11.70
2022-10-18T01:38:04.156Z,10.03
2022-10-18T01:40:33.480Z,10.27
2022-10-18T01:43:02.713Z,9.10
2022-10-18T01:45:33.611Z,9.50
2022-10-18T01:48:02.883Z,7.13
2022-10-18T01:50:32.105Z,9.97
2022-10-18T01:53:00.105Z,9.53
2022-10-18T01:55:34.901Z,9.77
2022-10-18T01:58:10.605Z,9.30
2022-10-18T02:00:42.817Z,9.07
2022-10-18T02:03:18.824Z,7.60
2022-10-18T02:05:53.224Z,8.57
2022-10-18T02:08:28.616Z,11.40
2022-10-18T02:11:05.234Z,8.17
2022-10-18T02:13:48.218Z,8.80
2022-10-18T02:16:20.556Z,10.50
2022-10-18T02:18:52.893Z,8.30
2022-10-18T02:21:22.345Z,8.87
2022-10-18T02:23:50.986Z,7.93
2022-10-18T02:26:18.960Z,9.63
2022-10-18T02:28:46.883Z,8.70
2022-10-18T02:31:21.899Z,7.30
2022-10-18T02:33:54.423Z,8.90
2022-10-18T02:36:26.866Z,10.27
2022-10-18T02:38:59.559Z,9.10
2022-10-18T02:41:28.308Z,8.60
2022-10-18T02:43:55.865Z,10.00
2022-10-18T02:46:24.805Z,9.77
2022-10-18T02:48:52.388Z,10.53
2022-10-18T02:51:19.967Z,7.57
2022-10-18T02:53:47.508Z,6.33
2022-10-18T02:56:15.060Z,8.53
2022-10-18T02:58:42.596Z,7.60
2022-10-18T03:01:10.463Z,8.53
2022-10-18T03:03:39.376Z,7.40
2022-10-18T03:06:07.103Z,8.38
2022-10-18T03:08:34.710Z,7.77
2022-10-18T03:11:02.249Z,7.80
2022-10-18T03:15:57.415Z,9.27
2022-10-18T03:18:24.983Z,11.63
2022-10-18T03:20:53.856Z,6.37
2022-10-18T03:23:21.436Z,7.37
2022-10-18T03:25:49.007Z,7.20
2022-10-18T03:28:16.656Z,5.63
2022-10-18T03:30:44.215Z,7.10
2022-10-18T03:33:11.767Z,7.05
2022-10-18T03:35:39.339Z,6.50
2022-10-18T03:38:08.592Z,5.50
2022-10-18T03:40:36.161Z,7.73
2022-10-18T03:43:03.754Z,9.00
2022-10-18T03:45:31.658Z,7.00
2022-10-18T03:47:59.401Z,9.37
2022-10-18T03:50:27.217Z,7.73
2022-10-18T03:52:55.413Z,7.80
2022-10-18T03:55:24.488Z,7.10
2022-10-18T03:57:52.122Z,10.50
2022-10-18T04:00:19.724Z,10.00
2022-10-18T04:02:50.687Z,7.57
2022-10-18T04:05:21.146Z,8.00
2022-10-18T04:07:48.678Z,10.17
2022-10-18T04:10:16.274Z,9.70
2022-10-18T04:12:45.295Z,7.40
2022-10-18T04:15:12.962Z,7.70
2022-10-18T04:17:40.534Z,7.90
2022-10-18T04:20:09.150Z,7.13
2022-10-18T04:22:37.089Z,7.30
2022-10-18T04:25:05.718Z,7.73
2022-10-18T04:27:33.623Z,6.83
2022-10-18T04:30:02.907Z,7.50
2022-10-18T04:32:30.555Z,8.60
2022-10-18T04:34:58.106Z,7.50
2022-10-18T04:37:25.714Z,7.33
2022-10-18T04:39:53.887Z,7.30
2022-10-18T04:42:21.922Z,9.00
2022-10-18T04:44:49.919Z,8.67
2022-10-18T04:47:19.026Z,7.60
2022-10-18T04:49:46.613Z,9.63
2022-10-18T04:52:14.370Z,9.47
2022-10-18T04:54:41.998Z,9.33
2022-10-18T04:57:09.619Z,9.75
2022-10-18T04:59:37.404Z,7.90
2022-10-18T05:02:09.355Z,9.53
2022-10-18T05:04:38.511Z,8.10
2022-10-18T05:07:06.899Z,8.93
2022-10-18T05:09:34.776Z,8.03
2022-10-18T05:12:02.474Z,9.30
2022-10-18T05:14:30.210Z,7.70
2022-10-18T05:16:58.182Z,7.20
2022-10-18T05:19:25.823Z,10.37
2022-10-18T05:21:55.382Z,11.63
2022-10-18T05:24:27.711Z,8.67
2022-10-18T05:26:55.751Z,7.07
2022-10-18T05:29:23.997Z,8.43
2022-10-18T05:31:51.804Z,7.70
2022-10-18T05:34:20.572Z,7.47
2022-10-18T05:36:49.330Z,7.90
2022-10-18T05:39:18.379Z,8.83
2022-10-18T05:41:45.994Z,8.93
2022-10-18T05:44:13.682Z,10.57
2022-10-18T05:46:41.278Z,7.87
2022-10-18T05:49:09.145Z,8.57
2022-10-18T05:51:36.927Z,7.53
2022-10-18T05:54:04.720Z,8.30
2022-10-18T05:56:33.766Z,7.00
2022-10-18T05:59:02.871Z,6.70
2022-10-18T06:01:30.414Z,7.03
2022-10-18T06:03:58.100Z,7.37
2022-10-18T06:06:25.703Z,6.43
2022-10-18T06:08:53.381Z,8.37
2022-10-18T06:11:21.838Z,7.97
2022-10-18T06:13:52.349Z,8.43
2022-10-18T06:16:21.661Z,7.23
2022-10-18T06:18:50.346Z,6.83
2022-10-18T06:21:18.845Z,9.50
2022-10-18T06:23:49.355Z,9.30
2022-10-18T06:26:16.950Z,9.80
2022-10-18T06:28:45.335Z,12.70
2022-10-18T06:31:15.404Z,11.03
2022-10-18T06:33:43.037Z,9.50
2022-10-18T06:36:13.361Z,10.40
2022-10-18T06:38:41.267Z,10.77
2022-10-18T06:41:09.394Z,14.03
2022-10-18T06:43:37.278Z,13.20
2022-10-18T06:46:07.746Z,12.23
2022-10-18T06:48:37.647Z,12.23
2022-10-18T06:51:07.351Z,13.70
2022-10-18T06:53:44.079Z,12.57
2022-10-18T06:56:16.336Z,14.10
2022-10-18T06:58:43.925Z,13.60
2022-10-18T07:01:13.591Z,12.50
2022-10-18T07:03:43.223Z,12.87
2022-10-18T07:06:13.048Z,12.50
2022-10-18T07:08:41.076Z,13.40
2022-10-18T07:11:10.259Z,13.90
2022-10-18T07:13:37.958Z,11.37
2022-10-18T07:16:07.631Z,10.40
2022-10-18T07:18:36.024Z,14.73
2022-10-18T07:21:07.831Z,14.60
2022-10-18T07:23:36.432Z,13.63
2022-10-18T07:26:05.908Z,11.10
2022-10-18T07:28:33.645Z,14.03
2022-10-18T07:31:06.236Z,12.33
2022-10-18T07:33:34.037Z,15.10
2022-10-18T07:36:02.647Z,13.10
2022-10-18T07:38:31.921Z,13.63
2022-10-18T07:41:00.373Z,14.70
2022-10-18T07:43:28.355Z,14.87
2022-10-18T07:45:57.514Z,14.07
2022-10-18T07:48:25.597Z,14.50
2022-10-18T07:50:53.653Z,15.30
2022-10-18T07:53:21.423Z,14.17
2022-10-18T07:55:50.346Z,16.30
2022-10-18T07:58:17.951Z,16.87
2022-10-18T08:00:45.639Z,15.80
2022-10-18T08:03:13.209Z,16.23
2022-10-18T08:05:40.742Z,17.40
2022-10-18T08:08:08.903Z,17.80
2022-10-18T08:10:36.693Z,16.65
2022-10-18T08:13:05.646Z,16.83
2022-10-18T08:15:33.249Z,17.65
2022-10-18T08:18:00.842Z,16.33
2022-10-18T08:20:31.637Z,17.50
2022-10-18T08:23:00.460Z,18.93
2022-10-18T08:25:28.914Z,18.17
2022-10-18T08:27:56.501Z,17.47
2022-10-18T08:30:25.496Z,16.60
2022-10-18T08:32:53.457Z,15.93
2022-10-18T08:35:21.103Z,15.73
2022-10-18T08:37:48.850Z,16.57
2022-10-18T08:40:17.027Z,15.10
2022-10-18T08:43:01.855Z,15.57
2022-10-18T08:45:43.001Z,15.43
2022-10-18T08:48:22.685Z,16.23
2022-10-18T08:50:51.843Z,15.47
2022-10-18T08:53:36.163Z,15.57
2022-10-18T08:56:14.383Z,15.27
2022-10-18T08:58:44.458Z,16.37
2022-10-18T09:01:28.413Z,14.00
2022-10-18T09:04:13.736Z,14.60
2022-10-18T09:06:50.002Z,13.77
2022-10-18T09:09:29.507Z,12.30
2022-10-18T09:12:10.516Z,10.60
2022-10-18T09:15:05.264Z,11.13
2022-10-18T09:17:43.891Z,10.73
2022-10-18T09:20:24.404Z,11.27
2022-10-18T09:22:57.539Z,11.97
2022-10-18T09:25:27.512Z,10.80
2022-10-18T09:27:57.985Z,9.85
2022-10-18T09:30:44.723Z,12.20
2022-10-18T09:33:31.070Z,9.77
2022-10-18T09:36:02.134Z,9.80
2022-10-18T09:38:33.491Z,8.37
2022-10-18T09:41:06.528Z,8.90
2022-10-18T09:43:47.045Z,9.50
2022-10-18T09:46:18.545Z,9.00
2022-10-18T09:48:51.252Z,9.50
2022-10-18T09:51:22.966Z,9.47
2022-10-18T09:54:04.500Z,8.80
2022-10-18T09:56:40.851Z,8.20
2022-10-18T09:59:29.033Z,8.13
2022-10-18T10:01:57.519Z,8.47
2022-10-18T10:04:26.595Z,7.87
2022-10-18T10:06:56.911Z,8.90
2022-10-18T10:09:29.295Z,7.70
2022-10-18T10:11:58.760Z,8.80
2022-10-18T10:14:28.338Z,7.75
2022-10-18T10:16:58.344Z,9.00
2022-10-18T10:19:32.300Z,9.23
2022-10-18T10:22:04.469Z,6.20
2022-10-18T10:24:51.402Z,7.93
2022-10-18T10:27:23.095Z,7.47
2022-10-18T10:29:59.527Z,8.50
2022-10-18T10:32:32.267Z,8.10
2022-10-18T10:35:01.287Z,8.87
2022-10-18T10:37:37.820Z,8.37
2022-10-18T10:40:27.779Z,6.90
2022-10-18T10:43:13.003Z,7.33
2022-10-18T10:46:02.994Z,8.77
2022-10-18T10:48:34.938Z,8.40
2022-10-18T10:51:07.280Z,7.50
2022-10-18T10:53:39.484Z,8.60
2022-10-18T10:56:16.028Z,7.50
2022-10-18T10:58:44.045Z,6.80
2022-10-18T11:01:21.874Z,6.67
2022-10-18T11:03:51.100Z,5.70
2022-10-18T11:06:47.680Z,5.90
2022-10-18T11:09:32.161Z,6.57
2022-10-18T11:12:09.148Z,6.70
2022-10-18T11:14:42.725Z,4.63
2022-10-18T11:17:21.901Z,5.10
2022-10-18T11:20:14.403Z,5.27
2022-10-18T11:22:51.532Z,4.13
2022-10-18T11:25:19.183Z,3.60
2022-10-18T11:27:55.553Z,4.63
2022-10-18T11:30:44.448Z,4.10
2022-10-18T11:33:29.614Z,3.90
2022-10-18T11:36:13.481Z,3.30
2022-10-18T11:38:48.621Z,4.10
2022-10-18T11:41:27.182Z,3.77
2022-10-18T11:44:02.809Z,4.22
2022-10-18T11:46:45.930Z,3.70
2022-10-18T11:49:28.357Z,3.40
2022-10-18T11:52:09.156Z,3.90
2022-10-18T11:54:53.074Z,4.33
2022-10-18T11:57:39.427Z,3.93
2022-10-18T12:00:20.481Z,3.47
2022-10-18T12:03:00.700Z,4.47
2022-10-18T12:05:30.515Z,3.50
2022-10-18T12:08:03.627Z,3.90
2022-10-18T12:10:45.729Z,3.80
2022-10-18T12:13:29.068Z,3.30
2022-10-18T12:15:57.011Z,3.57
2022-10-18T12:18:27.446Z,3.03
2022-10-18T12:20:57.818Z,3.23
2022-10-18T12:23:37.254Z,3.47
2022-10-18T12:26:08.126Z,2.73
2022-10-18T12:28:48.010Z,2.67
2022-10-18T12:31:22.470Z,2.93
2022-10-18T12:33:53.212Z,2.10
2022-10-18T12:36:45.675Z,2.77
2022-10-18T12:39:29.067Z,2.40
2022-10-18T12:42:19.636Z,2.30
2022-10-18T12:44:48.612Z,3.63
2022-10-18T12:47:23.783Z,3.97
2022-10-18T12:49:58.767Z,2.70
2022-10-18T12:52:29.011Z,2.92
2022-10-18T12:55:27.576Z,3.45
2022-10-18T12:58:28.776Z,4.63
2022-10-18T13:01:02.316Z,3.10
2022-10-18T13:03:52.952Z,2.17
2022-10-18T13:06:21.106Z,3.10
2022-10-18T13:08:51.055Z,2.93
2022-10-18T13:11:36.730Z,2.90
2022-10-18T13:14:27.006Z,3.00
2022-10-18T13:17:04.720Z,2.08
2022-10-18T13:19:41.332Z,2.70
2022-10-18T13:22:28.595Z,1.90
2022-10-18T13:25:04.162Z,1.83
2022-10-18T13:27:41.547Z,2.30
2022-10-18T13:30:24.626Z,1.77
2022-10-18T13:33:01.554Z,2.40
2022-10-18T13:35:50.323Z,3.47
2022-10-18T13:38:32.818Z,2.00
2022-10-18T13:41:04.274Z,2.40
2022-10-18T13:44:09.663Z,2.20
2022-10-18T13:47:13.020Z,1.90
2022-10-18T13:50:13.388Z,2.73
2022-10-18T13:52:58.254Z,2.30
2022-10-18T13:55:43.126Z,2.23
2022-10-18T13:58:18.993Z,2.30
2022-10-18T14:01:01.461Z,1.87
2022-10-18T14:04:06.251Z,1.97
2022-10-18T14:06:37.781Z,1.33
2022-10-18T14:09:25.517Z,1.60
2022-10-18T14:12:09.072Z,1.60
2022-10-18T14:14:42.041Z,2.60
2022-10-18T14:17:22.877Z,1.73
2022-10-18T14:19:57.763Z,1.50
2022-10-18T14:22:32.171Z,2.47
2022-10-18T14:25:00.271Z,2.03
2022-10-18T14:27:29.704Z,1.33
2022-10-18T14:30:15.021Z,1.23
2022-10-18T14:32:46.031Z,1.70
2022-10-18T14:35:34.590Z,1.50
2022-10-18T14:38:03.856Z,1.83
2022-10-18T14:40:36.050Z,1.33
2022-10-18T14:43:06.016Z,1.47
2022-10-18T14:45:33.785Z,1.43
2022-10-18T14:48:18.127Z,1.30
2022-10-18T14:50:50.016Z,1.60
2022-10-18T14:53:21.958Z,1.70
2022-10-18T14:55:56.617Z,2.33
2022-10-18T14:58:24.593Z,1.90
2022-10-18T15:00:52.729Z,2.47
2022-10-18T15:03:20.985Z,1.80
2022-10-18T15:05:56.612Z,2.87
2022-10-18T15:08:27.916Z,2.70
2022-10-18T15:10:55.731Z,2.93
2022-10-18T15:13:25.067Z,2.87
2022-10-18T15:15:53.248Z,2.70
2022-10-18T15:18:23.553Z,3.37
2022-10-18T15:21:10.457Z,2.57
2022-10-18T15:23:39.513Z,1.73
2022-10-18T15:26:11.335Z,2.37
2022-10-18T15:28:49.622Z,3.10
2022-10-18T15:31:25.312Z,2.13
2022-10-18T15:33:53.740Z,2.30
2022-10-18T15:36:31.116Z,2.87
2022-10-18T15:39:16.365Z,2.53
2022-10-18T15:41:48.954Z,2.10
2022-10-18T15:44:22.815Z,2.37
2022-10-18T15:46:52.888Z,2.40
2022-10-18T15:49:51.945Z,3.43
2022-10-18T15:52:39.057Z,2.10
2022-10-18T15:55:49.780Z,2.20
2022-10-18T15:58:22.064Z,2.13
2022-10-18T16:00:51.309Z,4.22
2022-10-18T16:03:21.999Z,1.73
2022-10-18T16:05:49.861Z,2.27
2022-10-18T16:08:22.655Z,1.70
2022-10-18T16:10:52.357Z,1.80
2022-10-18T16:13:20.623Z,1.80
2022-10-18T16:15:51.538Z,1.43
2022-10-18T16:18:21.253Z,1.65
2022-10-18T16:20:49.249Z,1.60
2022-10-18T16:23:19.922Z,2.00
2022-10-18T16:25:48.325Z,2.13
2022-10-18T16:28:19.592Z,2.07
2022-10-18T16:30:53.789Z,2.10
2022-10-18T16:33:21.763Z,2.23
2022-10-18T16:35:49.979Z,1.60
2022-10-18T16:38:32.511Z,1.87
2022-10-18T16:41:03.406Z,1.53
2022-10-18T16:43:32.670Z,1.80
2022-10-18T16:46:00.376Z,1.70
2022-10-18T16:48:28.366Z,1.80
2022-10-18T16:50:57.601Z,2.10
2022-10-18T16:53:26.117Z,1.70
2022-10-18T16:55:56.190Z,1.95
2022-10-18T16:58:24.977Z,2.15
2022-10-18T17:00:54.416Z,2.30
2022-10-18T17:03:22.611Z,1.93
2022-10-18T17:05:50.345Z,1.87
2022-10-18T17:08:20.475Z,2.90
2022-10-18T17:10:49.625Z,3.30
2022-10-18T17:13:17.788Z,2.60
2022-10-18T17:15:46.164Z,4.03
2022-10-18T17:18:18.500Z,3.40
2022-10-18T17:20:47.004Z,4.57
2022-10-18T17:23:14.911Z,4.27
2022-10-18T17:25:57.436Z,4.37
2022-10-18T17:28:32.209Z,3.67
2022-10-18T17:30:59.877Z,4.00
2022-10-18T17:33:28.781Z,4.67
2022-10-18T17:35:56.454Z,3.97
2022-10-18T17:38:24.115Z,3.70
2022-10-18T17:40:52.661Z,3.30
2022-10-18T17:43:20.532Z,3.03
2022-10-18T17:45:49.152Z,3.00
2022-10-18T17:48:17.775Z,3.30
2022-10-18T17:50:46.818Z,2.70
2022-10-18T17:53:14.961Z,3.13
2022-10-18T17:55:42.788Z,3.20
2022-10-18T17:58:10.447Z,3.70
2022-10-18T18:00:38.025Z,3.10
2022-10-18T18:03:05.688Z,3.63
2022-10-18T18:05:34.946Z,3.90
2022-10-18T18:08:04.267Z,4.20
2022-10-18T18:10:33.227Z,4.17
2022-10-18T18:13:00.813Z,4.23
2022-10-18T18:15:28.712Z,3.27
2022-10-18T18:17:57.454Z,3.90
2022-10-18T18:20:25.773Z,4.40
2022-10-18T18:22:53.900Z,4.93
2022-10-18T18:25:22.993Z,4.30
2022-10-18T18:27:50.621Z,4.80
2022-10-18T18:30:18.355Z,3.80
2022-10-18T18:32:45.920Z,3.53
2022-10-18T18:35:13.555Z,3.30
2022-10-18T18:37:41.207Z,3.70
2022-10-18T18:40:09.701Z,3.13
2022-10-18T18:42:38.736Z,5.10
2022-10-18T18:45:07.317Z,2.97
2022-10-18T18:47:35.517Z,3.30
2022-10-18T18:50:03.237Z,2.83
2022-10-18T18:52:31.206Z,3.87
2022-10-18T18:54:58.967Z,2.70
2022-10-18T18:57:26.561Z,3.53
2022-10-18T18:59:55.535Z,3.03
2022-10-18T19:02:23.134Z,3.27
2022-10-18T19:04:50.714Z,3.70
2022-10-18T19:07:18.507Z,3.03
2022-10-18T19:09:47.009Z,2.60
2022-10-18T19:12:19.082Z,2.80
2022-10-18T19:14:48.905Z,2.80
2022-10-18T19:17:17.917Z,2.63
2022-10-18T19:19:45.704Z,2.60
2022-10-18T19:22:13.336Z,3.00
2022-10-18T19:24:40.880Z,2.93
2022-10-18T19:27:12.273Z,2.97
2022-10-18T19:29:41.224Z,2.83
2022-10-18T19:32:11.928Z,2.50
2022-10-18T19:34:41.408Z,4.00
2022-10-18T19:37:11.079Z,3.30
2022-10-18T19:39:38.894Z,3.67
2022-10-18T19:42:08.860Z,3.27
2022-10-18T19:44:38.037Z,2.73
2022-10-18T19:47:06.578Z,3.00
2022-10-18T19:49:34.367Z,2.23
2022-10-18T19:52:03.396Z,3.23
2022-10-18T19:54:31.147Z,3.60
2022-10-18T19:56:58.696Z,2.37
2022-10-18T19:59:26.415Z,3.40
2022-10-18T20:01:54.315Z,3.10
2022-10-18T20:04:22.119Z,3.10
2022-10-18T20:06:50.173Z,2.73
2022-10-18T20:09:21.468Z,2.63
2022-10-18T20:11:49.268Z,2.40
2022-10-18T20:14:17.145Z,2.40
2022-10-18T20:16:44.880Z,2.30
2022-10-18T20:19:12.492Z,2.33
2022-10-18T20:21:40.228Z,2.67
2022-10-18T20:24:09.230Z,2.53
2022-10-18T20:26:39.449Z,2.43
2022-10-18T20:29:08.017Z,2.67
2022-10-18T20:31:39.027Z,1.90
2022-10-18T20:34:09.542Z,2.30
2022-10-18T20:36:38.383Z,2.63
2022-10-18T20:39:06.680Z,2.27
2022-10-18T20:41:35.736Z,2.37
2022-10-18T20:44:08.487Z,2.53
2022-10-18T20:46:38.681Z,2.33
2022-10-18T20:49:07.677Z,2.50
2022-10-18T20:51:36.154Z,2.47
2022-10-18T20:56:38.850Z,2.33
2022-10-18T20:59:09.832Z,1.67
2022-10-18T21:01:39.581Z,2.50
2022-10-18T21:04:09.308Z,1.70
2022-10-18T21:06:40.151Z,1.77
2022-10-18T21:09:09.538Z,2.40
2022-10-18T21:11:39.225Z,3.13
2022-10-18T21:14:08.993Z,2.70
2022-10-18T21:16:37.208Z,2.40
2022-10-18T21:19:05.385Z,2.50
2022-10-18T21:21:33.333Z,2.47
2022-10-18T21:24:03.906Z,2.07
2022-10-18T21:26:35.287Z,2.47
2022-10-18T21:29:03.468Z,2.23
2022-10-18T21:31:34.774Z,2.80
2022-10-18T21:34:04.031Z,2.10
2022-10-18T21:36:34.025Z,2.00
2022-10-18T21:39:02.897Z,2.87
2022-10-18T21:41:31.835Z,2.10
2022-10-18T21:43:59.506Z,2.40
2022-10-18T21:46:27.084Z,2.17
2022-10-18T21:48:57.485Z,2.33
2022-10-18T21:51:28.105Z,2.43
2022-10-18T21:53:58.406Z,2.80
2022-10-18T21:56:27.950Z,1.77
2022-10-18T21:58:56.417Z,2.23
2022-10-18T22:01:26.125Z,2.37
2022-10-18T22:03:56.556Z,1.80
2022-10-18T22:06:25.377Z,1.93
2022-10-18T22:08:55.312Z,1.80
2022-10-18T22:11:25.112Z,2.03
2022-10-18T22:13:53.707Z,1.90
2022-10-18T22:16:21.855Z,2.17
2022-10-18T22:18:50.192Z,2.00
2022-10-18T22:21:20.910Z,1.75
2022-10-18T22:23:50.237Z,1.33
2022-10-18T22:26:20.676Z,1.90
2022-10-18T22:28:49.423Z,2.13
2022-10-18T22:31:18.400Z,1.87
2022-10-18T22:33:46.395Z,1.95
2022-10-18T22:36:14.832Z,2.10
2022-10-18T22:38:43.805Z,2.00
2022-10-18T22:41:12.714Z,1.50
2022-10-18T22:43:40.494Z,1.55
2022-10-18T22:46:10.128Z,1.43
2022-10-18T22:48:37.976Z,1.57
2022-10-18T22:51:06.245Z,1.40
2022-10-18T22:53:34.156Z,1.40
2022-10-18T22:56:05.149Z,1.97
2022-10-18T22:58:33.359Z,2.03
2022-10-18T23:01:02.488Z,1.57
2022-10-18T23:03:30.103Z,1.60
2022-10-18T23:05:57.844Z,1.30
2022-10-18T23:08:25.643Z,1.73
2022-10-18T23:10:54.467Z,1.77
2022-10-18T23:13:24.135Z,1.77
2022-10-18T23:15:51.981Z,1.17
2022-10-18T23:18:19.934Z,1.37
2022-10-18T23:20:47.532Z,1.77
2022-10-18T23:23:15.221Z,1.57
2022-10-18T23:25:42.855Z,2.00
2022-10-18T23:28:10.414Z,1.67
2022-10-18T23:30:39.869Z,1.40
2022-10-18T23:33:07.501Z,1.50
2022-10-18T23:35:35.020Z,1.20
2022-10-18T23:38:02.570Z,1.93
2022-10-18T23:40:30.107Z,1.55
2022-10-18T23:42:57.755Z,1.43
2022-10-18T23:45:25.315Z,1.40
2022-10-18T23:47:54.250Z,1.10
2022-10-18T23:50:21.795Z,1.40
2022-10-18T23:52:49.357Z,1.10
2022-10-18T23:55:16.907Z,1.30
2022-10-18T23:57:44.491Z,1.37
